sensor_id;sensor_type;location;lat;lon;timestamp;P1;durP1;ratioP1;P2;durP2;ratioP2
2966;SDS011;1493;51.496;7.210;2023-05-09T00:02:19;9.03;;;7.20;;
2966;SDS011;1493;51.496;7.210;2023-05-09T00:04:47;8.47;;;7.67;;
2966;SDS011;1493;51.496;7.210;2023-05-09T00:07:14;8.97;;;8.07;;
2966;SDS011;1493;51.496;7.210;2023-05-09T00:09:41;9.10;;;8.13;;
2966;SDS011;1493;51.496;7.210;2023-05-09T00:12:09;8.63;;;7.80;;
2966;SDS011;1493;51.496;7.210;2023-05-09T00:14:36;10.67;;;9.67;;
2966;SDS011;1493;51.496;7.210;2023-05-09T00:17:04;10.37;;;8.90;;
2966;SDS011;1493;51.496;7.210;2023-05-09T00:19:31;11.23;;;8.57;;
2966;SDS011;1493;51.496;7.210;2023-05-09T00:21:58;8.90;;;7.97;;
2966;SDS011;1493;51.496;7.210;2023-05-09T00:24:25;9.63;;;8.73;;
2966;SDS011;1493;51.496;7.210;2023-05-09T00:26:52;14.00;;;9.73;;
2966;SDS011;1493;51.496;7.210;2023-05-09T00:29:20;10.40;;;9.33;;
2966;SDS011;1493;51.496;7.210;2023-05-09T00:31:47;10.50;;;9.50;;
2966;SDS011;1493;51.496;7.210;2023-05-09T00:34:14;12.77;;;10.47;;
2966;SDS011;1493;51.496;7.210;2023-05-09T00:36:40;10.60;;;9.60;;
2966;SDS011;1493;51.496;7.210;2023-05-09T00:39:07;11.47;;;10.37;;
2966;SDS011;1493;51.496;7.210;2023-05-09T00:41:34;13.00;;;10.30;;
2966;SDS011;1493;51.496;7.210;2023-05-09T00:44:01;11.17;;;10.07;;
2966;SDS011;1493;51.496;7.210;2023-05-09T00:46:29;10.43;;;9.43;;
2966;SDS011;1493;51.496;7.210;2023-05-09T00:48:56;11.53;;;10.20;;
2966;SDS011;1493;51.496;7.210;2023-05-09T00:51:23;11.90;;;10.70;;
2966;SDS011;1493;51.496;7.210;2023-05-09T00:53:50;10.57;;;9.47;;
2966;SDS011;1493;51.496;7.210;2023-05-09T00:56:17;11.03;;;9.93;;
2966;SDS011;1493;51.496;7.210;2023-05-09T00:58:45;11.70;;;10.60;;
2966;SDS011;1493;51.496;7.210;2023-05-09T01:01:13;11.00;;;10.00;;
2966;SDS011;1493;51.496;7.210;2023-05-09T01:03:41;11.07;;;10.07;;
2966;SDS011;1493;51.496;7.210;2023-05-09T01:06:10;12.10;;;10.50;;
2966;SDS011;1493;51.496;7.210;2023-05-09T01:08:43;12.33;;;10.60;;
2966;SDS011;1493;51.496;7.210;2023-05-09T01:11:16;14.03;;;11.17;;
2966;SDS011;1493;51.496;7.210;2023-05-09T01:13:48;11.33;;;9.77;;
2966;SDS011;1493;51.496;7.210;2023-05-09T01:16:24;11.57;;;10.47;;
2966;SDS011;1493;51.496;7.210;2023-05-09T01:18:59;12.20;;;10.57;;
2966;SDS011;1493;51.496;7.210;2023-05-09T01:21:32;12.83;;;11.60;;
2966;SDS011;1493;51.496;7.210;2023-05-09T01:24:09;11.73;;;10.53;;
2966;SDS011;1493;51.496;7.210;2023-05-09T01:26:54;11.70;;;10.10;;
2966;SDS011;1493;51.496;7.210;2023-05-09T01:29:36;10.60;;;9.53;;
2966;SDS011;1493;51.496;7.210;2023-05-09T01:32:08;12.10;;;10.80;;
2966;SDS011;1493;51.496;7.210;2023-05-09T01:34:39;11.80;;;9.50;;
2966;SDS011;1493;51.496;7.210;2023-05-09T01:37:09;12.13;;;10.93;;
2966;SDS011;1493;51.496;7.210;2023-05-09T01:39:38;9.90;;;9.00;;
2966;SDS011;1493;51.496;7.210;2023-05-09T01:42:07;12.97;;;10.87;;
2966;SDS011;1493;51.496;7.210;2023-05-09T01:44:39;10.73;;;9.20;;
2966;SDS011;1493;51.496;7.210;2023-05-09T01:47:08;10.97;;;9.87;;
2966;SDS011;1493;51.496;7.210;2023-05-09T01:49:36;10.97;;;9.80;;
2966;SDS011;1493;51.496;7.210;2023-05-09T01:52:07;10.80;;;9.70;;
2966;SDS011;1493;51.496;7.210;2023-05-09T01:54:36;15.27;;;11.70;;
2966;SDS011;1493;51.496;7.210;2023-05-09T02:00:25;10.80;;;9.80;;
2966;SDS011;1493;51.496;7.210;2023-05-09T02:02:53;10.63;;;9.63;;
2966;SDS011;1493;51.496;7.210;2023-05-09T02:05:20;11.17;;;10.00;;
2966;SDS011;1493;51.496;7.210;2023-05-09T02:07:52;10.20;;;9.20;;
2966;SDS011;1493;51.496;7.210;2023-05-09T02:10:22;10.40;;;9.30;;
2966;SDS011;1493;51.496;7.210;2023-05-09T02:12:50;12.17;;;10.03;;
2966;SDS011;1493;51.496;7.210;2023-05-09T02:15:20;11.63;;;10.37;;
2966;SDS011;1493;51.496;7.210;2023-05-09T02:17:48;13.63;;;11.90;;
2966;SDS011;1493;51.496;7.210;2023-05-09T02:20:16;11.47;;;10.37;;
2966;SDS011;1493;51.496;7.210;2023-05-09T02:22:43;12.00;;;10.70;;
2966;SDS011;1493;51.496;7.210;2023-05-09T02:25:10;10.57;;;9.47;;
2966;SDS011;1493;51.496;7.210;2023-05-09T02:27:39;14.07;;;11.27;;
2966;SDS011;1493;51.496;7.210;2023-05-09T02:30:07;11.43;;;10.23;;
2966;SDS011;1493;51.496;7.210;2023-05-09T02:32:37;13.37;;;11.77;;
2966;SDS011;1493;51.496;7.210;2023-05-09T02:35:07;11.87;;;10.77;;
2966;SDS011;1493;51.496;7.210;2023-05-09T02:37:35;12.17;;;10.97;;
2966;SDS011;1493;51.496;7.210;2023-05-09T02:40:03;16.10;;;14.40;;
2966;SDS011;1493;51.496;7.210;2023-05-09T02:42:33;13.73;;;11.77;;
2966;SDS011;1493;51.496;7.210;2023-05-09T02:45:00;14.83;;;11.73;;
2966;SDS011;1493;51.496;7.210;2023-05-09T02:47:27;12.30;;;11.00;;
2966;SDS011;1493;51.496;7.210;2023-05-09T02:49:53;14.30;;;10.43;;
2966;SDS011;1493;51.496;7.210;2023-05-09T02:52:22;15.63;;;13.97;;
2966;SDS011;1493;51.496;7.210;2023-05-09T02:54:48;15.37;;;12.47;;
2966;SDS011;1493;51.496;7.210;2023-05-09T02:57:15;14.53;;;13.00;;
2966;SDS011;1493;51.496;7.210;2023-05-09T02:59:42;14.57;;;13.00;;
2966;SDS011;1493;51.496;7.210;2023-05-09T03:02:09;16.00;;;13.00;;
2966;SDS011;1493;51.496;7.210;2023-05-09T03:04:36;14.90;;;12.83;;
2966;SDS011;1493;51.496;7.210;2023-05-09T03:07:02;13.23;;;11.50;;
2966;SDS011;1493;51.496;7.210;2023-05-09T03:09:31;13.47;;;12.03;;
2966;SDS011;1493;51.496;7.210;2023-05-09T03:11:58;15.23;;;12.00;;
2966;SDS011;1493;51.496;7.210;2023-05-09T03:14:24;12.30;;;10.80;;
2966;SDS011;1493;51.496;7.210;2023-05-09T03:16:51;13.90;;;11.80;;
2966;SDS011;1493;51.496;7.210;2023-05-09T03:19:18;13.20;;;11.80;;
2966;SDS011;1493;51.496;7.210;2023-05-09T03:21:45;11.77;;;10.60;;
2966;SDS011;1493;51.496;7.210;2023-05-09T03:24:12;14.03;;;11.77;;
2966;SDS011;1493;51.496;7.210;2023-05-09T03:26:40;13.47;;;11.43;;
2966;SDS011;1493;51.496;7.210;2023-05-09T03:29:07;14.77;;;12.57;;
2966;SDS011;1493;51.496;7.210;2023-05-09T03:31:33;12.13;;;10.93;;
2966;SDS011;1493;51.496;7.210;2023-05-09T03:34:00;13.90;;;11.10;;
2966;SDS011;1493;51.496;7.210;2023-05-09T03:36:27;13.60;;;11.30;;
2966;SDS011;1493;51.496;7.210;2023-05-09T03:38:55;15.93;;;14.10;;
2966;SDS011;1493;51.496;7.210;2023-05-09T03:41:22;13.23;;;11.93;;
2966;SDS011;1493;51.496;7.210;2023-05-09T03:43:50;13.70;;;12.13;;
2966;SDS011;1493;51.496;7.210;2023-05-09T03:46:17;13.97;;;12.47;;
2966;SDS011;1493;51.496;7.210;2023-05-09T03:48:44;16.03;;;14.20;;
2966;SDS011;1493;51.496;7.210;2023-05-09T03:51:11;13.60;;;12.20;;
2966;SDS011;1493;51.496;7.210;2023-05-09T03:53:37;14.20;;;12.80;;
2966;SDS011;1493;51.496;7.210;2023-05-09T03:56:04;14.00;;;12.50;;
2966;SDS011;1493;51.496;7.210;2023-05-09T03:58:32;16.77;;;13.03;;
2966;SDS011;1493;51.496;7.210;2023-05-09T04:01:00;17.20;;;15.40;;
2966;SDS011;1493;51.496;7.210;2023-05-09T04:03:27;18.10;;;12.67;;
2966;SDS011;1493;51.496;7.210;2023-05-09T04:05:54;15.23;;;13.37;;
2966;SDS011;1493;51.496;7.210;2023-05-09T04:08:21;17.70;;;15.00;;
2966;SDS011;1493;51.496;7.210;2023-05-09T04:10:48;19.07;;;14.30;;
2966;SDS011;1493;51.496;7.210;2023-05-09T04:13:16;16.83;;;14.47;;
2966;SDS011;1493;51.496;7.210;2023-05-09T04:15:43;16.80;;;12.70;;
2966;SDS011;1493;51.496;7.210;2023-05-09T04:18:11;13.70;;;12.17;;
2966;SDS011;1493;51.496;7.210;2023-05-09T04:20:38;13.13;;;11.80;;
2966;SDS011;1493;51.496;7.210;2023-05-09T04:23:05;16.27;;;14.57;;
2966;SDS011;1493;51.496;7.210;2023-05-09T04:25:31;14.37;;;12.83;;
2966;SDS011;1493;51.496;7.210;2023-05-09T04:27:59;13.57;;;12.17;;
2966;SDS011;1493;51.496;7.210;2023-05-09T04:30:26;15.40;;;13.67;;
2966;SDS011;1493;51.496;7.210;2023-05-09T04:32:53;14.40;;;12.90;;
2966;SDS011;1493;51.496;7.210;2023-05-09T04:35:21;15.00;;;12.70;;
2966;SDS011;1493;51.496;7.210;2023-05-09T04:37:48;13.93;;;10.87;;
2966;SDS011;1493;51.496;7.210;2023-05-09T04:40:16;14.50;;;12.07;;
2966;SDS011;1493;51.496;7.210;2023-05-09T04:42:43;13.20;;;11.90;;
2966;SDS011;1493;51.496;7.210;2023-05-09T04:45:10;14.80;;;13.33;;
2966;SDS011;1493;51.496;7.210;2023-05-09T04:47:37;13.47;;;12.07;;
2966;SDS011;1493;51.496;7.210;2023-05-09T04:50:04;15.80;;;13.23;;
2966;SDS011;1493;51.496;7.210;2023-05-09T04:52:33;13.53;;;11.67;;
2966;SDS011;1493;51.496;7.210;2023-05-09T04:55:00;14.37;;;12.80;;
2966;SDS011;1493;51.496;7.210;2023-05-09T04:57:27;13.07;;;11.67;;
2966;SDS011;1493;51.496;7.210;2023-05-09T04:59:54;12.47;;;11.07;;
2966;SDS011;1493;51.496;7.210;2023-05-09T05:02:21;13.50;;;12.10;;
2966;SDS011;1493;51.496;7.210;2023-05-09T05:04:49;15.47;;;13.80;;
2966;SDS011;1493;51.496;7.210;2023-05-09T05:07:16;17.80;;;13.47;;
2966;SDS011;1493;51.496;7.210;2023-05-09T05:09:44;14.60;;;11.10;;
2966;SDS011;1493;51.496;7.210;2023-05-09T05:12:11;14.53;;;12.47;;
2966;SDS011;1493;51.496;7.210;2023-05-09T05:14:37;15.47;;;12.50;;
2966;SDS011;1493;51.496;7.210;2023-05-09T05:17:04;14.17;;;12.77;;
2966;SDS011;1493;51.496;7.210;2023-05-09T05:19:31;18.37;;;16.47;;
2966;SDS011;1493;51.496;7.210;2023-05-09T05:21:58;18.53;;;14.60;;
2966;SDS011;1493;51.496;7.210;2023-05-09T05:24:25;14.50;;;11.77;;
2966;SDS011;1493;51.496;7.210;2023-05-09T05:26:53;14.17;;;12.73;;
2966;SDS011;1493;51.496;7.210;2023-05-09T05:29:20;14.80;;;12.53;;
2966;SDS011;1493;51.496;7.210;2023-05-09T05:31:47;12.47;;;11.17;;
2966;SDS011;1493;51.496;7.210;2023-05-09T05:34:14;12.37;;;11.13;;
2966;SDS011;1493;51.496;7.210;2023-05-09T05:36:41;13.00;;;11.70;;
2966;SDS011;1493;51.496;7.210;2023-05-09T05:39:08;12.53;;;10.90;;
2966;SDS011;1493;51.496;7.210;2023-05-09T05:41:34;15.67;;;13.57;;
2966;SDS011;1493;51.496;7.210;2023-05-09T05:44:03;16.67;;;13.97;;
2966;SDS011;1493;51.496;7.210;2023-05-09T05:46:30;21.27;;;16.80;;
2966;SDS011;1493;51.496;7.210;2023-05-09T05:48:57;17.20;;;15.40;;
2966;SDS011;1493;51.496;7.210;2023-05-09T05:51:23;16.27;;;14.57;;
2966;SDS011;1493;51.496;7.210;2023-05-09T05:53:50;16.30;;;14.30;;
2966;SDS011;1493;51.496;7.210;2023-05-09T05:56:17;19.33;;;17.33;;
2966;SDS011;1493;51.496;7.210;2023-05-09T05:58:44;18.37;;;16.43;;
2966;SDS011;1493;51.496;7.210;2023-05-09T06:01:12;18.10;;;15.40;;
2966;SDS011;1493;51.496;7.210;2023-05-09T06:03:39;17.63;;;15.50;;
2966;SDS011;1493;51.496;7.210;2023-05-09T06:06:06;18.73;;;16.73;;
2966;SDS011;1493;51.496;7.210;2023-05-09T06:08:33;17.70;;;15.80;;
2966;SDS011;1493;51.496;7.210;2023-05-09T06:11:03;19.30;;;17.30;;
2966;SDS011;1493;51.496;7.210;2023-05-09T06:13:32;16.80;;;14.77;;
2966;SDS011;1493;51.496;7.210;2023-05-09T06:16:09;18.10;;;14.60;;
2966;SDS011;1493;51.496;7.210;2023-05-09T06:18:46;19.13;;;14.77;;
2966;SDS011;1493;51.496;7.210;2023-05-09T06:21:16;18.97;;;15.27;;
2966;SDS011;1493;51.496;7.210;2023-05-09T06:26:41;18.60;;;15.90;;
2966;SDS011;1493;51.496;7.210;2023-05-09T06:29:13;17.57;;;15.77;;
2966;SDS011;1493;51.496;7.210;2023-05-09T06:31:50;15.43;;;13.83;;
2966;SDS011;1493;51.496;7.210;2023-05-09T06:34:24;19.03;;;17.13;;
2966;SDS011;1493;51.496;7.210;2023-05-09T06:36:50;15.13;;;13.63;;
2966;SDS011;1493;51.496;7.210;2023-05-09T06:39:17;18.63;;;13.70;;
2966;SDS011;1493;51.496;7.210;2023-05-09T06:41:44;18.37;;;14.43;;
2966;SDS011;1493;51.496;7.210;2023-05-09T06:44:11;15.93;;;14.23;;
2966;SDS011;1493;51.496;7.210;2023-05-09T06:46:38;15.00;;;13.23;;
2966;SDS011;1493;51.496;7.210;2023-05-09T06:49:05;13.17;;;11.80;;
2966;SDS011;1493;51.496;7.210;2023-05-09T06:51:33;15.30;;;13.03;;
2966;SDS011;1493;51.496;7.210;2023-05-09T06:54:00;13.93;;;12.53;;
2966;SDS011;1493;51.496;7.210;2023-05-09T06:56:27;13.73;;;12.43;;
2966;SDS011;1493;51.496;7.210;2023-05-09T06:58:54;13.97;;;12.63;;
2966;SDS011;1493;51.496;7.210;2023-05-09T07:01:21;12.00;;;10.83;;
2966;SDS011;1493;51.496;7.210;2023-05-09T07:03:48;14.80;;;13.30;;
2966;SDS011;1493;51.496;7.210;2023-05-09T07:06:14;12.60;;;11.40;;
2966;SDS011;1493;51.496;7.210;2023-05-09T07:08:42;13.47;;;12.07;;
2966;SDS011;1493;51.496;7.210;2023-05-09T07:11:09;13.13;;;11.73;;
2966;SDS011;1493;51.496;7.210;2023-05-09T07:13:36;13.17;;;11.87;;
2966;SDS011;1493;51.496;7.210;2023-05-09T07:16:03;15.03;;;12.90;;
2966;SDS011;1493;51.496;7.210;2023-05-09T07:18:30;11.53;;;10.33;;
2966;SDS011;1493;51.496;7.210;2023-05-09T07:20:57;11.23;;;10.17;;
2966;SDS011;1493;51.496;7.210;2023-05-09T07:23:24;12.17;;;10.67;;
2966;SDS011;1493;51.496;7.210;2023-05-09T07:25:55;12.37;;;11.07;;
2966;SDS011;1493;51.496;7.210;2023-05-09T07:28:23;10.40;;;9.30;;
2966;SDS011;1493;51.496;7.210;2023-05-09T07:30:50;9.23;;;8.37;;
2966;SDS011;1493;51.496;7.210;2023-05-09T07:33:17;9.40;;;8.27;;
2966;SDS011;1493;51.496;7.210;2023-05-09T07:35:43;10.07;;;8.97;;
2966;SDS011;1493;51.496;7.210;2023-05-09T07:38:10;11.10;;;10.00;;
2966;SDS011;1493;51.496;7.210;2023-05-09T07:40:37;9.80;;;8.10;;
2966;SDS011;1493;51.496;7.210;2023-05-09T07:43:06;10.00;;;9.10;;
2966;SDS011;1493;51.496;7.210;2023-05-09T07:45:33;11.50;;;10.03;;
2966;SDS011;1493;51.496;7.210;2023-05-09T07:48:00;10.50;;;9.40;;
2966;SDS011;1493;51.496;7.210;2023-05-09T07:50:27;9.40;;;8.50;;
2966;SDS011;1493;51.496;7.210;2023-05-09T07:52:54;8.93;;;8.13;;
2966;SDS011;1493;51.496;7.210;2023-05-09T07:55:21;9.13;;;8.23;;
2966;SDS011;1493;51.496;7.210;2023-05-09T07:57:48;13.10;;;8.33;;
2966;SDS011;1493;51.496;7.210;2023-05-09T08:00:16;10.53;;;9.33;;
2966;SDS011;1493;51.496;7.210;2023-05-09T08:02:47;9.23;;;8.33;;
2966;SDS011;1493;51.496;7.210;2023-05-09T08:05:14;12.90;;;9.13;;
2966;SDS011;1493;51.496;7.210;2023-05-09T08:07:41;10.87;;;8.20;;
2966;SDS011;1493;51.496;7.210;2023-05-09T08:10:08;7.90;;;7.20;;
2966;SDS011;1493;51.496;7.210;2023-05-09T08:12:35;8.07;;;7.30;;
2966;SDS011;1493;51.496;7.210;2023-05-09T08:15:02;7.67;;;6.97;;
2966;SDS011;1493;51.496;7.210;2023-05-09T08:17:31;7.57;;;6.50;;
2966;SDS011;1493;51.496;7.210;2023-05-09T08:19:58;6.87;;;6.17;;
2966;SDS011;1493;51.496;7.210;2023-05-09T08:22:24;8.47;;;7.03;;
2966;SDS011;1493;51.496;7.210;2023-05-09T08:24:51;9.73;;;5.67;;
2966;SDS011;1493;51.496;7.210;2023-05-09T08:27:18;7.80;;;6.40;;
2966;SDS011;1493;51.496;7.210;2023-05-09T08:29:45;7.87;;;7.07;;
2966;SDS011;1493;51.496;7.210;2023-05-09T08:32:12;6.73;;;5.87;;
2966;SDS011;1493;51.496;7.210;2023-05-09T08:34:40;6.60;;;5.00;;
2966;SDS011;1493;51.496;7.210;2023-05-09T08:37:07;7.10;;;6.40;;
2966;SDS011;1493;51.496;7.210;2023-05-09T08:39:34;6.80;;;6.17;;
2966;SDS011;1493;51.496;7.210;2023-05-09T08:42:00;6.23;;;4.77;;
2966;SDS011;1493;51.496;7.210;2023-05-09T08:44:28;5.30;;;4.80;;
2966;SDS011;1493;51.496;7.210;2023-05-09T08:46:57;6.65;;;5.60;;
2966;SDS011;1493;51.496;7.210;2023-05-09T08:49:25;5.20;;;4.70;;
2966;SDS011;1493;51.496;7.210;2023-05-09T08:51:53;5.53;;;5.03;;
2966;SDS011;1493;51.496;7.210;2023-05-09T08:54:21;5.93;;;4.87;;
2966;SDS011;1493;51.496;7.210;2023-05-09T08:56:48;5.90;;;4.37;;
2966;SDS011;1493;51.496;7.210;2023-05-09T08:59:16;5.00;;;4.40;;
2966;SDS011;1493;51.496;7.210;2023-05-09T09:01:43;6.77;;;5.27;;
2966;SDS011;1493;51.496;7.210;2023-05-09T09:04:10;4.40;;;3.80;;
2966;SDS011;1493;51.496;7.210;2023-05-09T09:06:38;5.10;;;4.00;;
2966;SDS011;1493;51.496;7.210;2023-05-09T09:09:07;4.27;;;3.87;;
2966;SDS011;1493;51.496;7.210;2023-05-09T09:11:34;4.77;;;3.63;;
2966;SDS011;1493;51.496;7.210;2023-05-09T09:14:06;4.40;;;4.00;;
2966;SDS011;1493;51.496;7.210;2023-05-09T09:16:38;7.03;;;3.20;;
2966;SDS011;1493;51.496;7.210;2023-05-09T09:19:07;5.27;;;4.20;;
2966;SDS011;1493;51.496;7.210;2023-05-09T09:21:38;4.40;;;4.00;;
2966;SDS011;1493;51.496;7.210;2023-05-09T09:24:08;3.53;;;3.23;;
2966;SDS011;1493;51.496;7.210;2023-05-09T09:26:42;4.70;;;3.50;;
2966;SDS011;1493;51.496;7.210;2023-05-09T09:29:12;6.67;;;3.63;;
2966;SDS011;1493;51.496;7.210;2023-05-09T09:31:39;5.00;;;4.40;;
2966;SDS011;1493;51.496;7.210;2023-05-09T09:34:10;6.50;;;4.03;;
2966;SDS011;1493;51.496;7.210;2023-05-09T09:36:38;3.67;;;3.37;;
2966;SDS011;1493;51.496;7.210;2023-05-09T09:39:05;3.93;;;3.53;;
2966;SDS011;1493;51.496;7.210;2023-05-09T09:41:34;5.80;;;3.20;;
2966;SDS011;1493;51.496;7.210;2023-05-09T09:44:05;4.07;;;3.47;;
2966;SDS011;1493;51.496;7.210;2023-05-09T09:46:42;7.60;;;4.20;;
2966;SDS011;1493;51.496;7.210;2023-05-09T09:49:10;4.40;;;3.90;;
2966;SDS011;1493;51.496;7.210;2023-05-09T09:51:38;4.30;;;3.63;;
2966;SDS011;1493;51.496;7.210;2023-05-09T09:54:05;3.87;;;3.50;;
2966;SDS011;1493;51.496;7.210;2023-05-09T09:56:40;4.40;;;3.50;;
2966;SDS011;1493;51.496;7.210;2023-05-09T09:59:09;6.00;;;3.40;;
2966;SDS011;1493;51.496;7.210;2023-05-09T10:01:56;3.43;;;3.13;;
2966;SDS011;1493;51.496;7.210;2023-05-09T10:04:25;2.83;;;2.20;;
2966;SDS011;1493;51.496;7.210;2023-05-09T10:06:54;3.20;;;2.30;;
2966;SDS011;1493;51.496;7.210;2023-05-09T10:09:22;3.23;;;2.40;;
2966;SDS011;1493;51.496;7.210;2023-05-09T10:11:51;3.37;;;2.40;;
2966;SDS011;1493;51.496;7.210;2023-05-09T10:14:19;3.40;;;2.20;;
2966;SDS011;1493;51.496;7.210;2023-05-09T10:16:48;2.50;;;2.10;;
2966;SDS011;1493;51.496;7.210;2023-05-09T10:19:16;3.80;;;2.87;;
2966;SDS011;1493;51.496;7.210;2023-05-09T10:21:46;3.90;;;2.77;;
2966;SDS011;1493;51.496;7.210;2023-05-09T10:24:20;2.60;;;2.20;;
2966;SDS011;1493;51.496;7.210;2023-05-09T10:26:53;2.73;;;2.30;;
2966;SDS011;1493;51.496;7.210;2023-05-09T10:29:25;3.57;;;2.60;;
2966;SDS011;1493;51.496;7.210;2023-05-09T10:31:57;2.87;;;2.20;;
2966;SDS011;1493;51.496;7.210;2023-05-09T10:34:26;3.67;;;2.60;;
2966;SDS011;1493;51.496;7.210;2023-05-09T10:36:56;3.00;;;2.47;;
2966;SDS011;1493;51.496;7.210;2023-05-09T10:39:25;3.40;;;2.53;;
2966;SDS011;1493;51.496;7.210;2023-05-09T10:41:54;3.40;;;2.50;;
2966;SDS011;1493;51.496;7.210;2023-05-09T10:44:22;3.73;;;2.43;;
2966;SDS011;1493;51.496;7.210;2023-05-09T10:46:50;3.37;;;2.60;;
2966;SDS011;1493;51.496;7.210;2023-05-09T10:49:18;3.70;;;2.60;;
2966;SDS011;1493;51.496;7.210;2023-05-09T10:51:46;3.50;;;2.70;;
2966;SDS011;1493;51.496;7.210;2023-05-09T10:54:24;4.03;;;2.80;;
2966;SDS011;1493;51.496;7.210;2023-05-09T10:56:53;4.70;;;2.93;;
2966;SDS011;1493;51.496;7.210;2023-05-09T10:59:31;3.33;;;2.27;;
2966;SDS011;1493;51.496;7.210;2023-05-09T11:02:02;9.10;;;2.63;;
2966;SDS011;1493;51.496;7.210;2023-05-09T11:04:30;4.37;;;2.43;;
2966;SDS011;1493;51.496;7.210;2023-05-09T11:06:57;2.80;;;2.50;;
2966;SDS011;1493;51.496;7.210;2023-05-09T11:09:29;3.80;;;2.50;;
2966;SDS011;1493;51.496;7.210;2023-05-09T11:12:00;2.93;;;2.53;;
2966;SDS011;1493;51.496;7.210;2023-05-09T11:14:37;3.40;;;2.60;;
2966;SDS011;1493;51.496;7.210;2023-05-09T11:17:09;4.47;;;2.30;;
2966;SDS011;1493;51.496;7.210;2023-05-09T11:19:55;3.43;;;2.50;;
2966;SDS011;1493;51.496;7.210;2023-05-09T11:22:27;3.70;;;2.60;;
2966;SDS011;1493;51.496;7.210;2023-05-09T11:25:01;3.83;;;2.50;;
2966;SDS011;1493;51.496;7.210;2023-05-09T11:27:35;2.67;;;2.40;;
2966;SDS011;1493;51.496;7.210;2023-05-09T11:30:08;3.70;;;1.97;;
2966;SDS011;1493;51.496;7.210;2023-05-09T11:32:43;2.93;;;2.20;;
2966;SDS011;1493;51.496;7.210;2023-05-09T11:35:12;2.50;;;1.70;;
2966;SDS011;1493;51.496;7.210;2023-05-09T11:37:44;2.33;;;1.80;;
2966;SDS011;1493;51.496;7.210;2023-05-09T11:40:12;2.43;;;2.00;;
2966;SDS011;1493;51.496;7.210;2023-05-09T11:42:43;2.77;;;2.33;;
2966;SDS011;1493;51.496;7.210;2023-05-09T11:45:10;3.03;;;2.20;;
2966;SDS011;1493;51.496;7.210;2023-05-09T11:47:38;3.17;;;2.53;;
2966;SDS011;1493;51.496;7.210;2023-05-09T11:50:05;2.50;;;1.90;;
2966;SDS011;1493;51.496;7.210;2023-05-09T11:52:34;3.10;;;2.03;;
2966;SDS011;1493;51.496;7.210;2023-05-09T11:55:02;4.43;;;2.63;;
2966;SDS011;1493;51.496;7.210;2023-05-09T11:57:31;3.57;;;2.10;;
2966;SDS011;1493;51.496;7.210;2023-05-09T12:00:05;2.87;;;2.27;;
2966;SDS011;1493;51.496;7.210;2023-05-09T12:02:33;3.67;;;2.00;;
2966;SDS011;1493;51.496;7.210;2023-05-09T12:05:08;2.60;;;1.60;;
2966;SDS011;1493;51.496;7.210;2023-05-09T12:07:36;3.07;;;1.97;;
2966;SDS011;1493;51.496;7.210;2023-05-09T12:10:06;3.40;;;1.97;;
2966;SDS011;1493;51.496;7.210;2023-05-09T12:12:34;3.83;;;1.77;;
2966;SDS011;1493;51.496;7.210;2023-05-09T12:15:02;2.10;;;1.60;;
2966;SDS011;1493;51.496;7.210;2023-05-09T12:17:34;6.40;;;1.80;;
2966;SDS011;1493;51.496;7.210;2023-05-09T12:20:03;2.50;;;1.97;;
2966;SDS011;1493;51.496;7.210;2023-05-09T12:22:30;4.10;;;1.90;;
2966;SDS011;1493;51.496;7.210;2023-05-09T12:24:58;3.83;;;1.97;;
2966;SDS011;1493;51.496;7.210;2023-05-09T12:27:27;6.03;;;2.43;;
2966;SDS011;1493;51.496;7.210;2023-05-09T12:29:56;3.30;;;2.50;;
2966;SDS011;1493;51.496;7.210;2023-05-09T12:32:24;2.37;;;1.93;;
2966;SDS011;1493;51.496;7.210;2023-05-09T12:34:55;2.77;;;2.10;;
2966;SDS011;1493;51.496;7.210;2023-05-09T12:37:22;3.60;;;2.33;;
2966;SDS011;1493;51.496;7.210;2023-05-09T12:39:58;5.33;;;2.27;;
2966;SDS011;1493;51.496;7.210;2023-05-09T12:42:26;2.57;;;2.07;;
2966;SDS011;1493;51.496;7.210;2023-05-09T12:44:53;2.33;;;2.10;;
2966;SDS011;1493;51.496;7.210;2023-05-09T12:47:20;2.50;;;2.23;;
2966;SDS011;1493;51.496;7.210;2023-05-09T12:49:49;3.33;;;2.00;;
2966;SDS011;1493;51.496;7.210;2023-05-09T12:52:16;3.60;;;2.30;;
2966;SDS011;1493;51.496;7.210;2023-05-09T12:54:46;4.13;;;2.47;;
2966;SDS011;1493;51.496;7.210;2023-05-09T12:57:19;3.40;;;1.73;;
2966;SDS011;1493;51.496;7.210;2023-05-09T12:59:47;3.20;;;2.00;;
2966;SDS011;1493;51.496;7.210;2023-05-09T13:02:15;5.47;;;2.70;;
2966;SDS011;1493;51.496;7.210;2023-05-09T13:04:43;3.33;;;2.20;;
2966;SDS011;1493;51.496;7.210;2023-05-09T13:07:11;3.23;;;1.70;;
2966;SDS011;1493;51.496;7.210;2023-05-09T13:09:52;3.17;;;1.67;;
2966;SDS011;1493;51.496;7.210;2023-05-09T13:12:21;3.33;;;2.27;;
2966;SDS011;1493;51.496;7.210;2023-05-09T13:14:49;3.17;;;1.87;;
2966;SDS011;1493;51.496;7.210;2023-05-09T13:17:16;3.93;;;2.00;;
2966;SDS011;1493;51.496;7.210;2023-05-09T13:19:43;2.67;;;1.83;;
2966;SDS011;1493;51.496;7.210;2023-05-09T13:22:09;3.40;;;1.70;;
2966;SDS011;1493;51.496;7.210;2023-05-09T13:24:38;3.07;;;1.67;;
2966;SDS011;1493;51.496;7.210;2023-05-09T13:27:04;3.40;;;1.90;;
2966;SDS011;1493;51.496;7.210;2023-05-09T13:29:31;5.63;;;1.67;;
2966;SDS011;1493;51.496;7.210;2023-05-09T13:31:58;2.40;;;1.93;;
2966;SDS011;1493;51.496;7.210;2023-05-09T13:34:25;4.20;;;1.30;;
2966;SDS011;1493;51.496;7.210;2023-05-09T13:36:51;4.47;;;1.70;;
2966;SDS011;1493;51.496;7.210;2023-05-09T13:39:20;2.30;;;1.60;;
2966;SDS011;1493;51.496;7.210;2023-05-09T13:41:46;5.50;;;1.80;;
2966;SDS011;1493;51.496;7.210;2023-05-09T13:44:15;3.10;;;1.70;;
2966;SDS011;1493;51.496;7.210;2023-05-09T13:46:42;4.67;;;1.93;;
2966;SDS011;1493;51.496;7.210;2023-05-09T13:49:09;3.40;;;1.80;;
2966;SDS011;1493;51.496;7.210;2023-05-09T13:51:37;2.67;;;2.03;;
2966;SDS011;1493;51.496;7.210;2023-05-09T13:54:04;5.87;;;1.80;;
2966;SDS011;1493;51.496;7.210;2023-05-09T13:56:37;3.67;;;1.87;;
2966;SDS011;1493;51.496;7.210;2023-05-09T13:59:04;4.53;;;1.90;;
2966;SDS011;1493;51.496;7.210;2023-05-09T14:01:32;3.30;;;1.83;;
2966;SDS011;1493;51.496;7.210;2023-05-09T14:03:59;3.20;;;2.20;;
2966;SDS011;1493;51.496;7.210;2023-05-09T14:06:26;3.83;;;1.97;;
2966;SDS011;1493;51.496;7.210;2023-05-09T14:08:53;2.53;;;2.00;;
2966;SDS011;1493;51.496;7.210;2023-05-09T14:11:20;4.00;;;2.43;;
2966;SDS011;1493;51.496;7.210;2023-05-09T14:13:48;2.73;;;1.93;;
2966;SDS011;1493;51.496;7.210;2023-05-09T14:16:16;4.27;;;2.30;;
2966;SDS011;1493;51.496;7.210;2023-05-09T14:18:43;6.83;;;2.20;;
2966;SDS011;1493;51.496;7.210;2023-05-09T14:21:10;3.60;;;2.10;;
2966;SDS011;1493;51.496;7.210;2023-05-09T14:23:37;2.37;;;1.80;;
2966;SDS011;1493;51.496;7.210;2023-05-09T14:26:03;3.83;;;2.23;;
2966;SDS011;1493;51.496;7.210;2023-05-09T14:28:30;4.50;;;2.40;;
2966;SDS011;1493;51.496;7.210;2023-05-09T14:30:59;3.17;;;2.53;;
2966;SDS011;1493;51.496;7.210;2023-05-09T14:33:26;4.40;;;3.50;;
2966;SDS011;1493;51.496;7.210;2023-05-09T14:35:53;6.17;;;3.93;;
2966;SDS011;1493;51.496;7.210;2023-05-09T14:38:20;4.77;;;3.63;;
2966;SDS011;1493;51.496;7.210;2023-05-09T14:40:47;7.70;;;4.23;;
2966;SDS011;1493;51.496;7.210;2023-05-09T14:43:13;8.30;;;3.97;;
2966;SDS011;1493;51.496;7.210;2023-05-09T14:45:41;6.90;;;4.50;;
2966;SDS011;1493;51.496;7.210;2023-05-09T14:48:09;5.80;;;3.80;;
2966;SDS011;1493;51.496;7.210;2023-05-09T14:50:35;8.73;;;4.53;;
2966;SDS011;1493;51.496;7.210;2023-05-09T14:53:02;7.33;;;4.97;;
2966;SDS011;1493;51.496;7.210;2023-05-09T14:55:29;7.97;;;4.67;;
2966;SDS011;1493;51.496;7.210;2023-05-09T14:57:56;9.17;;;5.07;;
2966;SDS011;1493;51.496;7.210;2023-05-09T15:00:23;8.20;;;7.13;;
2966;SDS011;1493;51.496;7.210;2023-05-09T15:02:50;7.77;;;5.17;;
2966;SDS011;1493;51.496;7.210;2023-05-09T15:05:18;9.47;;;7.87;;
2966;SDS011;1493;51.496;7.210;2023-05-09T15:07:45;9.10;;;7.17;;
2966;SDS011;1493;51.496;7.210;2023-05-09T15:10:12;10.50;;;9.50;;
2966;SDS011;1493;51.496;7.210;2023-05-09T15:12:39;15.60;;;12.20;;
2966;SDS011;1493;51.496;7.210;2023-05-09T15:15:13;12.23;;;10.30;;
2966;SDS011;1493;51.496;7.210;2023-05-09T15:17:41;11.87;;;10.77;;